sensor_id;sensor_type;location;lat;lon;timestamp;P1;durP1;ratioP1;P2;durP2;ratioP2
5412;SDS011;2729;50.056;8.678;2023-03-20T00:00:04;2.67;;;2.57;;
5412;SDS011;2729;50.056;8.678;2023-03-20T00:02:34;2.63;;;2.43;;
5412;SDS011;2729;50.056;8.678;2023-03-20T00:05:16;2.30;;;2.20;;
5412;SDS011;2729;50.056;8.678;2023-03-20T00:07:45;4.10;;;2.47;;
5412;SDS011;2729;50.056;8.678;2023-03-20T00:10:12;3.60;;;2.50;;
5412;SDS011;2729;50.056;8.678;2023-03-20T00:12:38;3.77;;;2.13;;
5412;SDS011;2729;50.056;8.678;2023-03-20T00:15:05;2.47;;;2.37;;
5412;SDS011;2729;50.056;8.678;2023-03-20T00:17:39;2.60;;;2.40;;
5412;SDS011;2729;50.056;8.678;2023-03-20T00:20:05;2.37;;;2.00;;
5412;SDS011;2729;50.056;8.678;2023-03-20T00:22:32;2.40;;;2.20;;
5412;SDS011;2729;50.056;8.678;2023-03-20T00:24:58;3.13;;;2.70;;
5412;SDS011;2729;50.056;8.678;2023-03-20T00:27:23;2.67;;;2.30;;
5412;SDS011;2729;50.056;8.678;2023-03-20T00:29:52;2.07;;;1.97;;
5412;SDS011;2729;50.056;8.678;2023-03-20T00:32:23;1.83;;;1.60;;
5412;SDS011;2729;50.056;8.678;2023-03-20T00:34:49;2.20;;;2.10;;
5412;SDS011;2729;50.056;8.678;2023-03-20T00:37:15;2.40;;;2.30;;
5412;SDS011;2729;50.056;8.678;2023-03-20T00:39:41;2.30;;;2.10;;
5412;SDS011;2729;50.056;8.678;2023-03-20T00:42:07;2.30;;;2.10;;
5412;SDS011;2729;50.056;8.678;2023-03-20T00:44:53;2.30;;;2.10;;
5412;SDS011;2729;50.056;8.678;2023-03-20T00:47:22;2.27;;;2.07;;
5412;SDS011;2729;50.056;8.678;2023-03-20T00:49:50;2.60;;;2.40;;
5412;SDS011;2729;50.056;8.678;2023-03-20T00:52:19;4.13;;;2.27;;
5412;SDS011;2729;50.056;8.678;2023-03-20T00:54:46;4.83;;;2.30;;
5412;SDS011;2729;50.056;8.678;2023-03-20T00:57:18;5.07;;;2.23;;
5412;SDS011;2729;50.056;8.678;2023-03-20T01:02:30;2.33;;;2.23;;
5412;SDS011;2729;50.056;8.678;2023-03-20T01:04:56;2.60;;;2.30;;
5412;SDS011;2729;50.056;8.678;2023-03-20T01:07:24;2.13;;;2.00;;
5412;SDS011;2729;50.056;8.678;2023-03-20T01:09:51;3.57;;;2.40;;
5412;SDS011;2729;50.056;8.678;2023-03-20T01:12:18;2.30;;;2.20;;
5412;SDS011;2729;50.056;8.678;2023-03-20T01:14:53;3.63;;;2.63;;
5412;SDS011;2729;50.056;8.678;2023-03-20T01:17:21;2.63;;;2.43;;
5412;SDS011;2729;50.056;8.678;2023-03-20T01:19:48;2.27;;;2.03;;
5412;SDS011;2729;50.056;8.678;2023-03-20T01:22:15;2.57;;;2.33;;
5412;SDS011;2729;50.056;8.678;2023-03-20T01:24:42;2.17;;;2.07;;
5412;SDS011;2729;50.056;8.678;2023-03-20T01:27:18;2.40;;;2.20;;
5412;SDS011;2729;50.056;8.678;2023-03-20T01:29:45;3.07;;;2.87;;
5412;SDS011;2729;50.056;8.678;2023-03-20T01:32:13;2.00;;;1.90;;
5412;SDS011;2729;50.056;8.678;2023-03-20T01:34:44;2.70;;;2.50;;
5412;SDS011;2729;50.056;8.678;2023-03-20T01:37:13;2.80;;;2.60;;
5412;SDS011;2729;50.056;8.678;2023-03-20T01:39:42;2.27;;;2.07;;
5412;SDS011;2729;50.056;8.678;2023-03-20T01:42:10;3.20;;;2.30;;
5412;SDS011;2729;50.056;8.678;2023-03-20T01:44:41;2.47;;;2.27;;
5412;SDS011;2729;50.056;8.678;2023-03-20T01:47:18;2.40;;;2.10;;
5412;SDS011;2729;50.056;8.678;2023-03-20T01:53:01;2.50;;;2.30;;
5412;SDS011;2729;50.056;8.678;2023-03-20T01:55:35;3.03;;;2.80;;
5412;SDS011;2729;50.056;8.678;2023-03-20T01:58:06;2.77;;;2.57;;
5412;SDS011;2729;50.056;8.678;2023-03-20T02:00:35;3.93;;;2.87;;
5412;SDS011;2729;50.056;8.678;2023-03-20T02:03:02;2.73;;;2.53;;
5412;SDS011;2729;50.056;8.678;2023-03-20T02:05:52;3.80;;;3.00;;
5412;SDS011;2729;50.056;8.678;2023-03-20T02:08:22;2.80;;;2.57;;
5412;SDS011;2729;50.056;8.678;2023-03-20T02:10:52;2.73;;;2.53;;
5412;SDS011;2729;50.056;8.678;2023-03-20T02:13:26;2.67;;;2.47;;
5412;SDS011;2729;50.056;8.678;2023-03-20T02:15:54;2.60;;;2.40;;
5412;SDS011;2729;50.056;8.678;2023-03-20T02:18:37;4.60;;;2.93;;
5412;SDS011;2729;50.056;8.678;2023-03-20T02:23:49;3.63;;;2.80;;
5412;SDS011;2729;50.056;8.678;2023-03-20T02:26:45;3.30;;;3.00;;
5412;SDS011;2729;50.056;8.678;2023-03-20T02:32:30;3.30;;;2.70;;
5412;SDS011;2729;50.056;8.678;2023-03-20T02:35:23;5.50;;;3.70;;
5412;SDS011;2729;50.056;8.678;2023-03-20T02:38:08;4.00;;;3.60;;
5412;SDS011;2729;50.056;8.678;2023-03-20T02:46:53;3.77;;;3.20;;
5412;SDS011;2729;50.056;8.678;2023-03-20T02:49:40;3.80;;;3.50;;
5412;SDS011;2729;50.056;8.678;2023-03-20T02:52:15;5.70;;;3.87;;
5412;SDS011;2729;50.056;8.678;2023-03-20T03:00:37;6.03;;;3.60;;
5412;SDS011;2729;50.056;8.678;2023-03-20T03:03:14;5.00;;;3.87;;
5412;SDS011;2729;50.056;8.678;2023-03-20T03:05:49;4.47;;;3.90;;
5412;SDS011;2729;50.056;8.678;2023-03-20T03:08:21;6.90;;;3.93;;
5412;SDS011;2729;50.056;8.678;2023-03-20T03:10:52;6.33;;;4.10;;
5412;SDS011;2729;50.056;8.678;2023-03-20T03:13:27;4.87;;;4.10;;
5412;SDS011;2729;50.056;8.678;2023-03-20T03:16:01;6.47;;;4.30;;
5412;SDS011;2729;50.056;8.678;2023-03-20T03:18:34;4.30;;;3.57;;
5412;SDS011;2729;50.056;8.678;2023-03-20T03:21:03;4.53;;;4.10;;
5412;SDS011;2729;50.056;8.678;2023-03-20T03:23:39;4.50;;;3.90;;
5412;SDS011;2729;50.056;8.678;2023-03-20T03:26:11;4.17;;;3.77;;
5412;SDS011;2729;50.056;8.678;2023-03-20T03:28:54;4.43;;;3.73;;
5412;SDS011;2729;50.056;8.678;2023-03-20T03:31:24;6.47;;;4.87;;
5412;SDS011;2729;50.056;8.678;2023-03-20T03:33:52;5.73;;;4.10;;
5412;SDS011;2729;50.056;8.678;2023-03-20T03:36:24;6.40;;;4.53;;
5412;SDS011;2729;50.056;8.678;2023-03-20T03:39:44;5.63;;;4.10;;
5412;SDS011;2729;50.056;8.678;2023-03-20T03:41:58;6.60;;;4.07;;
5412;SDS011;2729;50.056;8.678;2023-03-20T03:44:46;7.53;;;5.10;;
5412;SDS011;2729;50.056;8.678;2023-03-20T03:47:26;6.23;;;4.10;;
5412;SDS011;2729;50.056;8.678;2023-03-20T03:50:00;4.30;;;3.70;;
5412;SDS011;2729;50.056;8.678;2023-03-20T03:52:30;6.37;;;3.97;;
5412;SDS011;2729;50.056;8.678;2023-03-20T03:54:59;4.90;;;4.00;;
5412;SDS011;2729;50.056;8.678;2023-03-20T03:57:33;6.40;;;3.90;;
5412;SDS011;2729;50.056;8.678;2023-03-20T04:00:08;6.33;;;4.47;;
5412;SDS011;2729;50.056;8.678;2023-03-20T04:02:43;8.00;;;5.30;;
5412;SDS011;2729;50.056;8.678;2023-03-20T04:05:11;6.37;;;4.53;;
5412;SDS011;2729;50.056;8.678;2023-03-20T04:07:43;7.43;;;4.50;;
5412;SDS011;2729;50.056;8.678;2023-03-20T04:10:10;7.40;;;4.67;;
5412;SDS011;2729;50.056;8.678;2023-03-20T04:12:40;8.70;;;4.77;;
5412;SDS011;2729;50.056;8.678;2023-03-20T04:15:10;8.30;;;5.33;;
5412;SDS011;2729;50.056;8.678;2023-03-20T04:17:38;6.63;;;4.40;;
5412;SDS011;2729;50.056;8.678;2023-03-20T04:20:05;6.70;;;4.93;;
5412;SDS011;2729;50.056;8.678;2023-03-20T04:22:32;6.73;;;5.00;;
5412;SDS011;2729;50.056;8.678;2023-03-20T04:25:04;7.40;;;4.80;;
5412;SDS011;2729;50.056;8.678;2023-03-20T04:27:31;7.60;;;5.10;;
5412;SDS011;2729;50.056;8.678;2023-03-20T04:29:58;9.57;;;5.37;;
5412;SDS011;2729;50.056;8.678;2023-03-20T04:32:50;13.83;;;6.50;;
5412;SDS011;2729;50.056;8.678;2023-03-20T04:35:22;7.73;;;5.30;;
5412;SDS011;2729;50.056;8.678;2023-03-20T04:37:51;10.00;;;5.33;;
5412;SDS011;2729;50.056;8.678;2023-03-20T04:40:17;8.13;;;5.47;;
5412;SDS011;2729;50.056;8.678;2023-03-20T04:42:44;7.33;;;5.07;;
5412;SDS011;2729;50.056;8.678;2023-03-20T04:45:10;7.43;;;4.87;;
5412;SDS011;2729;50.056;8.678;2023-03-20T04:47:37;8.40;;;5.67;;
5412;SDS011;2729;50.056;8.678;2023-03-20T04:50:05;8.70;;;6.07;;
5412;SDS011;2729;50.056;8.678;2023-03-20T04:52:31;7.57;;;5.03;;
5412;SDS011;2729;50.056;8.678;2023-03-20T04:54:57;13.03;;;6.40;;
5412;SDS011;2729;50.056;8.678;2023-03-20T04:57:23;11.10;;;5.57;;
5412;SDS011;2729;50.056;8.678;2023-03-20T04:59:50;8.43;;;5.80;;
5412;SDS011;2729;50.056;8.678;2023-03-20T05:02:16;8.43;;;5.37;;
5412;SDS011;2729;50.056;8.678;2023-03-20T05:04:43;6.70;;;5.17;;
5412;SDS011;2729;50.056;8.678;2023-03-20T05:07:09;12.27;;;6.70;;
5412;SDS011;2729;50.056;8.678;2023-03-20T05:09:46;7.83;;;6.00;;
5412;SDS011;2729;50.056;8.678;2023-03-20T05:12:13;8.70;;;5.93;;
5412;SDS011;2729;50.056;8.678;2023-03-20T05:14:57;10.50;;;6.10;;
5412;SDS011;2729;50.056;8.678;2023-03-20T05:17:38;11.07;;;5.97;;
5412;SDS011;2729;50.056;8.678;2023-03-20T05:20:27;10.97;;;6.60;;
5412;SDS011;2729;50.056;8.678;2023-03-20T05:23:13;11.73;;;6.70;;
5412;SDS011;2729;50.056;8.678;2023-03-20T05:25:49;8.33;;;6.30;;
5412;SDS011;2729;50.056;8.678;2023-03-20T05:28:33;10.43;;;6.67;;
5412;SDS011;2729;50.056;8.678;2023-03-20T05:31:12;9.13;;;6.37;;
5412;SDS011;2729;50.056;8.678;2023-03-20T05:33:59;10.37;;;6.17;;
5412;SDS011;2729;50.056;8.678;2023-03-20T05:37:00;9.47;;;6.30;;
5412;SDS011;2729;50.056;8.678;2023-03-20T05:39:48;8.83;;;5.97;;
5412;SDS011;2729;50.056;8.678;2023-03-20T05:42:28;9.47;;;6.70;;
5412;SDS011;2729;50.056;8.678;2023-03-20T05:45:17;9.80;;;5.57;;
5412;SDS011;2729;50.056;8.678;2023-03-20T05:47:56;10.23;;;6.33;;
5412;SDS011;2729;50.056;8.678;2023-03-20T05:50:54;12.30;;;6.47;;
5412;SDS011;2729;50.056;8.678;2023-03-20T05:53:35;9.17;;;6.00;;
5412;SDS011;2729;50.056;8.678;2023-03-20T05:56:19;10.13;;;6.00;;
5412;SDS011;2729;50.056;8.678;2023-03-20T05:58:57;8.37;;;5.70;;
5412;SDS011;2729;50.056;8.678;2023-03-20T06:01:46;7.97;;;5.97;;
5412;SDS011;2729;50.056;8.678;2023-03-20T06:04:24;10.73;;;5.77;;
5412;SDS011;2729;50.056;8.678;2023-03-20T06:07:14;13.43;;;6.03;;
5412;SDS011;2729;50.056;8.678;2023-03-20T06:09:44;10.50;;;6.80;;
5412;SDS011;2729;50.056;8.678;2023-03-20T06:12:12;13.47;;;6.87;;
5412;SDS011;2729;50.056;8.678;2023-03-20T06:14:39;12.00;;;7.07;;
5412;SDS011;2729;50.056;8.678;2023-03-20T06:17:07;12.43;;;7.27;;
5412;SDS011;2729;50.056;8.678;2023-03-20T06:19:33;10.50;;;7.07;;
5412;SDS011;2729;50.056;8.678;2023-03-20T06:21:59;12.73;;;6.67;;
5412;SDS011;2729;50.056;8.678;2023-03-20T06:24:25;12.00;;;6.87;;
5412;SDS011;2729;50.056;8.678;2023-03-20T06:26:51;12.63;;;6.97;;
5412;SDS011;2729;50.056;8.678;2023-03-20T06:29:18;13.87;;;7.67;;
5412;SDS011;2729;50.056;8.678;2023-03-20T06:31:44;13.10;;;7.60;;
5412;SDS011;2729;50.056;8.678;2023-03-20T06:34:22;11.87;;;6.13;;
5412;SDS011;2729;50.056;8.678;2023-03-20T06:36:48;11.77;;;6.73;;
5412;SDS011;2729;50.056;8.678;2023-03-20T06:39:19;12.77;;;7.10;;
5412;SDS011;2729;50.056;8.678;2023-03-20T06:41:48;11.20;;;7.10;;
5412;SDS011;2729;50.056;8.678;2023-03-20T06:44:15;13.80;;;7.10;;
5412;SDS011;2729;50.056;8.678;2023-03-20T06:47:13;12.03;;;6.93;;
5412;SDS011;2729;50.056;8.678;2023-03-20T06:49:40;10.43;;;6.97;;
5412;SDS011;2729;50.056;8.678;2023-03-20T06:52:07;13.43;;;7.40;;
5412;SDS011;2729;50.056;8.678;2023-03-20T06:54:41;12.20;;;7.17;;
5412;SDS011;2729;50.056;8.678;2023-03-20T06:57:08;10.73;;;6.93;;
5412;SDS011;2729;50.056;8.678;2023-03-20T06:59:34;11.70;;;6.90;;
5412;SDS011;2729;50.056;8.678;2023-03-20T07:02:01;8.97;;;5.73;;
5412;SDS011;2729;50.056;8.678;2023-03-20T07:04:28;11.87;;;6.70;;
5412;SDS011;2729;50.056;8.678;2023-03-20T07:06:58;11.80;;;6.70;;
5412;SDS011;2729;50.056;8.678;2023-03-20T07:09:25;11.83;;;6.50;;
5412;SDS011;2729;50.056;8.678;2023-03-20T07:11:51;11.63;;;6.93;;
5412;SDS011;2729;50.056;8.678;2023-03-20T07:14:18;16.20;;;7.23;;
5412;SDS011;2729;50.056;8.678;2023-03-20T07:16:49;16.13;;;7.33;;
5412;SDS011;2729;50.056;8.678;2023-03-20T07:19:16;13.07;;;7.97;;
5412;SDS011;2729;50.056;8.678;2023-03-20T07:21:45;14.30;;;7.70;;
5412;SDS011;2729;50.056;8.678;2023-03-20T07:24:15;14.10;;;6.67;;
5412;SDS011;2729;50.056;8.678;2023-03-20T07:26:41;16.33;;;7.97;;
5412;SDS011;2729;50.056;8.678;2023-03-20T07:29:08;12.70;;;7.40;;
5412;SDS011;2729;50.056;8.678;2023-03-20T07:31:33;11.87;;;6.93;;
5412;SDS011;2729;50.056;8.678;2023-03-20T07:34:29;25.03;;;8.07;;
5412;SDS011;2729;50.056;8.678;2023-03-20T07:36:56;14.80;;;7.27;;
5412;SDS011;2729;50.056;8.678;2023-03-20T07:39:22;13.03;;;7.93;;
5412;SDS011;2729;50.056;8.678;2023-03-20T07:42:02;12.67;;;7.13;;
5412;SDS011;2729;50.056;8.678;2023-03-20T07:44:44;16.60;;;7.73;;
5412;SDS011;2729;50.056;8.678;2023-03-20T07:47:11;17.80;;;8.50;;
5412;SDS011;2729;50.056;8.678;2023-03-20T07:49:36;14.50;;;7.90;;
5412;SDS011;2729;50.056;8.678;2023-03-20T07:52:02;14.13;;;7.43;;
5412;SDS011;2729;50.056;8.678;2023-03-20T07:54:29;21.53;;;8.70;;
5412;SDS011;2729;50.056;8.678;2023-03-20T07:56:56;15.83;;;8.67;;
5412;SDS011;2729;50.056;8.678;2023-03-20T07:59:22;16.80;;;8.37;;
5412;SDS011;2729;50.056;8.678;2023-03-20T08:01:48;19.00;;;9.47;;
5412;SDS011;2729;50.056;8.678;2023-03-20T08:04:14;12.20;;;6.97;;
5412;SDS011;2729;50.056;8.678;2023-03-20T08:06:44;14.40;;;7.77;;
5412;SDS011;2729;50.056;8.678;2023-03-20T08:09:10;15.13;;;7.87;;
5412;SDS011;2729;50.056;8.678;2023-03-20T08:11:36;20.90;;;8.57;;
5412;SDS011;2729;50.056;8.678;2023-03-20T08:14:02;17.60;;;7.70;;
5412;SDS011;2729;50.056;8.678;2023-03-20T08:16:28;12.30;;;7.27;;
5412;SDS011;2729;50.056;8.678;2023-03-20T08:18:54;16.30;;;8.97;;
5412;SDS011;2729;50.056;8.678;2023-03-20T08:21:26;16.03;;;8.53;;
5412;SDS011;2729;50.056;8.678;2023-03-20T08:23:52;14.53;;;7.70;;
5412;SDS011;2729;50.056;8.678;2023-03-20T08:26:19;16.33;;;8.10;;
5412;SDS011;2729;50.056;8.678;2023-03-20T08:28:45;14.87;;;8.30;;
5412;SDS011;2729;50.056;8.678;2023-03-20T08:31:11;14.57;;;8.07;;
5412;SDS011;2729;50.056;8.678;2023-03-20T08:33:36;23.43;;;8.77;;
5412;SDS011;2729;50.056;8.678;2023-03-20T08:36:02;20.90;;;8.67;;
5412;SDS011;2729;50.056;8.678;2023-03-20T08:38:29;18.20;;;9.10;;
5412;SDS011;2729;50.056;8.678;2023-03-20T08:40:54;18.03;;;9.23;;
5412;SDS011;2729;50.056;8.678;2023-03-20T08:43:20;19.07;;;10.00;;
5412;SDS011;2729;50.056;8.678;2023-03-20T08:45:46;18.40;;;9.47;;
5412;SDS011;2729;50.056;8.678;2023-03-20T08:48:12;28.63;;;11.70;;
5412;SDS011;2729;50.056;8.678;2023-03-20T08:50:38;31.93;;;11.33;;
5412;SDS011;2729;50.056;8.678;2023-03-20T08:53:05;23.97;;;11.00;;
5412;SDS011;2729;50.056;8.678;2023-03-20T08:55:31;32.23;;;11.30;;
5412;SDS011;2729;50.056;8.678;2023-03-20T08:57:57;25.43;;;10.90;;
5412;SDS011;2729;50.056;8.678;2023-03-20T09:00:23;26.40;;;11.77;;
5412;SDS011;2729;50.056;8.678;2023-03-20T09:02:50;21.33;;;10.30;;
5412;SDS011;2729;50.056;8.678;2023-03-20T09:05:16;21.90;;;9.73;;
5412;SDS011;2729;50.056;8.678;2023-03-20T09:07:42;26.40;;;10.47;;
5412;SDS011;2729;50.056;8.678;2023-03-20T09:10:08;27.60;;;10.77;;
5412;SDS011;2729;50.056;8.678;2023-03-20T09:12:36;27.93;;;11.43;;
5412;SDS011;2729;50.056;8.678;2023-03-20T09:15:03;26.93;;;11.60;;
5412;SDS011;2729;50.056;8.678;2023-03-20T09:17:30;24.10;;;11.70;;
5412;SDS011;2729;50.056;8.678;2023-03-20T09:19:56;22.50;;;10.67;;
5412;SDS011;2729;50.056;8.678;2023-03-20T09:22:22;28.27;;;11.03;;
5412;SDS011;2729;50.056;8.678;2023-03-20T09:24:48;22.93;;;11.10;;
5412;SDS011;2729;50.056;8.678;2023-03-20T09:27:17;22.17;;;10.13;;
5412;SDS011;2729;50.056;8.678;2023-03-20T09:29:43;27.23;;;10.50;;
5412;SDS011;2729;50.056;8.678;2023-03-20T09:32:10;24.40;;;10.70;;
5412;SDS011;2729;50.056;8.678;2023-03-20T09:34:37;26.93;;;12.77;;
5412;SDS011;2729;50.056;8.678;2023-03-20T09:37:04;25.43;;;11.00;;
5412;SDS011;2729;50.056;8.678;2023-03-20T09:39:31;23.87;;;11.27;;
5412;SDS011;2729;50.056;8.678;2023-03-20T09:41:59;29.60;;;11.57;;
5412;SDS011;2729;50.056;8.678;2023-03-20T09:44:50;26.33;;;12.33;;
5412;SDS011;2729;50.056;8.678;2023-03-20T09:47:37;31.37;;;11.00;;
5412;SDS011;2729;50.056;8.678;2023-03-20T09:52:59;26.23;;;11.27;;
5412;SDS011;2729;50.056;8.678;2023-03-20T09:55:34;28.30;;;11.27;;
5412;SDS011;2729;50.056;8.678;2023-03-20T09:58:12;23.10;;;9.77;;
5412;SDS011;2729;50.056;8.678;2023-03-20T10:00:42;17.57;;;9.30;;
5412;SDS011;2729;50.056;8.678;2023-03-20T10:03:16;22.30;;;11.37;;
5412;SDS011;2729;50.056;8.678;2023-03-20T10:05:50;22.83;;;11.30;;
5412;SDS011;2729;50.056;8.678;2023-03-20T10:08:25;26.07;;;11.67;;
5412;SDS011;2729;50.056;8.678;2023-03-20T10:11:03;21.43;;;11.00;;
5412;SDS011;2729;50.056;8.678;2023-03-20T10:19:25;18.50;;;9.90;;
5412;SDS011;2729;50.056;8.678;2023-03-20T10:22:00;24.00;;;10.13;;
5412;SDS011;2729;50.056;8.678;2023-03-20T10:24:58;24.33;;;9.80;;
5412;SDS011;2729;50.056;8.678;2023-03-20T10:27:47;22.17;;;9.23;;
5412;SDS011;2729;50.056;8.678;2023-03-20T10:30:34;23.83;;;10.60;;
5412;SDS011;2729;50.056;8.678;2023-03-20T10:33:22;17.13;;;9.70;;
5412;SDS011;2729;50.056;8.678;2023-03-20T10:39:05;16.97;;;9.73;;
5412;SDS011;2729;50.056;8.678;2023-03-20T10:41:40;22.47;;;9.67;;
5412;SDS011;2729;50.056;8.678;2023-03-20T10:44:13;18.60;;;8.80;;
5412;SDS011;2729;50.056;8.678;2023-03-20T10:46:44;16.40;;;8.40;;
5412;SDS011;2729;50.056;8.678;2023-03-20T10:49:22;16.17;;;8.33;;
5412;SDS011;2729;50.056;8.678;2023-03-20T10:51:57;20.73;;;8.50;;
5412;SDS011;2729;50.056;8.678;2023-03-20T10:54:28;13.07;;;6.70;;
5412;SDS011;2729;50.056;8.678;2023-03-20T10:56:58;6.90;;;4.77;;
5412;SDS011;2729;50.056;8.678;2023-03-20T10:59:27;12.07;;;6.40;;
5412;SDS011;2729;50.056;8.678;2023-03-20T11:01:58;16.13;;;7.80;;
5412;SDS011;2729;50.056;8.678;2023-03-20T11:04:24;10.73;;;6.40;;
5412;SDS011;2729;50.056;8.678;2023-03-20T11:07:02;14.07;;;6.43;;
5412;SDS011;2729;50.056;8.678;2023-03-20T11:09:35;14.40;;;6.87;;
5412;SDS011;2729;50.056;8.678;2023-03-20T11:12:01;8.93;;;5.77;;
5412;SDS011;2729;50.056;8.678;2023-03-20T11:14:32;16.30;;;6.00;;
5412;SDS011;2729;50.056;8.678;2023-03-20T11:17:00;14.67;;;6.80;;
5412;SDS011;2729;50.056;8.678;2023-03-20T11:19:31;14.13;;;6.43;;
5412;SDS011;2729;50.056;8.678;2023-03-20T11:21:59;10.60;;;6.37;;
5412;SDS011;2729;50.056;8.678;2023-03-20T11:24:36;10.40;;;6.27;;
5412;SDS011;2729;50.056;8.678;2023-03-20T11:27:13;8.37;;;6.03;;
5412;SDS011;2729;50.056;8.678;2023-03-20T11:29:42;11.67;;;5.07;;
5412;SDS011;2729;50.056;8.678;2023-03-20T11:32:24;9.90;;;5.53;;
5412;SDS011;2729;50.056;8.678;2023-03-20T11:34:51;11.37;;;5.87;;
5412;SDS011;2729;50.056;8.678;2023-03-20T11:37:23;10.73;;;6.20;;
5412;SDS011;2729;50.056;8.678;2023-03-20T11:39:57;8.73;;;5.13;;
5412;SDS011;2729;50.056;8.678;2023-03-20T11:42:26;10.33;;;5.87;;
5412;SDS011;2729;50.056;8.678;2023-03-20T11:44:57;10.03;;;5.53;;
5412;SDS011;2729;50.056;8.678;2023-03-20T11:47:25;9.23;;;4.67;;
5412;SDS011;2729;50.056;8.678;2023-03-20T11:49:54;10.23;;;5.50;;
5412;SDS011;2729;50.056;8.678;2023-03-20T11:52:26;9.67;;;5.40;;
5412;SDS011;2729;50.056;8.678;2023-03-20T11:54:57;7.70;;;4.73;;
5412;SDS011;2729;50.056;8.678;2023-03-20T11:57:31;9.77;;;5.97;;
5412;SDS011;2729;50.056;8.678;2023-03-20T12:00:23;9.40;;;5.23;;
5412;SDS011;2729;50.056;8.678;2023-03-20T12:02:49;9.60;;;5.60;;
5412;SDS011;2729;50.056;8.678;2023-03-20T12:05:26;8.20;;;5.37;;
5412;SDS011;2729;50.056;8.678;2023-03-20T12:07:56;3.07;;;2.50;;
5412;SDS011;2729;50.056;8.678;2023-03-20T12:10:31;6.60;;;4.00;;
5412;SDS011;2729;50.056;8.678;2023-03-20T12:13:10;5.40;;;4.20;;
5412;SDS011;2729;50.056;8.678;2023-03-20T12:15:50;7.83;;;5.30;;
5412;SDS011;2729;50.056;8.678;2023-03-20T12:18:38;5.60;;;3.60;;
5412;SDS011;2729;50.056;8.678;2023-03-20T12:21:09;9.90;;;5.33;;
5412;SDS011;2729;50.056;8.678;2023-03-20T12:23:41;7.23;;;4.73;;
5412;SDS011;2729;50.056;8.678;2023-03-20T12:26:17;6.00;;;4.47;;
5412;SDS011;2729;50.056;8.678;2023-03-20T12:34:17;6.60;;;4.20;;
5412;SDS011;2729;50.056;8.678;2023-03-20T12:36:49;6.17;;;4.03;;
5412;SDS011;2729;50.056;8.678;2023-03-20T12:39:18;7.53;;;4.50;;
5412;SDS011;2729;50.056;8.678;2023-03-20T12:44:54;5.83;;;3.43;;
5412;SDS011;2729;50.056;8.678;2023-03-20T12:50:24;3.80;;;3.40;;
5412;SDS011;2729;50.056;8.678;2023-03-20T12:53:06;4.30;;;3.90;;
5412;SDS011;2729;50.056;8.678;2023-03-20T12:58:34;4.93;;;3.20;;
5412;SDS011;2729;50.056;8.678;2023-03-20T13:01:31;4.27;;;3.20;;
5412;SDS011;2729;50.056;8.678;2023-03-20T13:07:17;6.90;;;3.23;;
5412;SDS011;2729;50.056;8.678;2023-03-20T13:10:00;4.77;;;3.20;;
5412;SDS011;2729;50.056;8.678;2023-03-20T13:17:51;4.37;;;3.33;;
5412;SDS011;2729;50.056;8.678;2023-03-20T13:20:29;2.33;;;2.23;;
5412;SDS011;2729;50.056;8.678;2023-03-20T13:23:09;3.57;;;2.70;;
5412;SDS011;2729;50.056;8.678;2023-03-20T13:28:34;2.53;;;2.33;;
5412;SDS011;2729;50.056;8.678;2023-03-20T13:33:51;2.67;;;2.47;;
5412;SDS011;2729;50.056;8.678;2023-03-20T13:36:32;1.87;;;1.77;;
5412;SDS011;2729;50.056;8.678;2023-03-20T13:39:13;2.00;;;1.90;;
5412;SDS011;2729;50.056;8.678;2023-03-20T13:41:44;2.10;;;2.00;;
5412;SDS011;2729;50.056;8.678;2023-03-20T13:44:12;3.63;;;1.70;;
5412;SDS011;2729;50.056;8.678;2023-03-20T13:49:56;1.73;;;1.63;;
5412;SDS011;2729;50.056;8.678;2023-03-20T13:52:38;1.97;;;1.77;;
5412;SDS011;2729;50.056;8.678;2023-03-20T13:58:32;1.53;;;1.43;;
5412;SDS011;2729;50.056;8.678;2023-03-20T14:01:06;1.80;;;1.70;;
5412;SDS011;2729;50.056;8.678;2023-03-20T14:03:44;1.60;;;1.50;;
5412;SDS011;2729;50.056;8.678;2023-03-20T14:08:56;2.40;;;1.47;;
5412;SDS011;2729;50.056;8.678;2023-03-20T14:16:22;10.50;;;1.83;;
5412;SDS011;2729;50.056;8.678;2023-03-20T14:21:49;1.70;;;1.60;;
5412;SDS011;2729;50.056;8.678;2023-03-20T14:24:17;1.83;;;1.73;;
5412;SDS011;2729;50.056;8.678;2023-03-20T14:26:47;2.23;;;2.00;;
5412;SDS011;2729;50.056;8.678;2023-03-20T14:31:41;2.50;;;2.30;;
5412;SDS011;2729;50.056;8.678;2023-03-20T14:36:59;3.77;;;2.63;;
5412;SDS011;2729;50.056;8.678;2023-03-20T14:50:09;3.73;;;2.43;;
5412;SDS011;2729;50.056;8.678;2023-03-20T14:52:51;5.27;;;2.70;;
5412;SDS011;2729;50.056;8.678;2023-03-20T14:55:45;6.47;;;2.30;;
5412;SDS011;2729;50.056;8.678;2023-03-20T15:01:04;2.30;;;1.73;;
5412;SDS011;2729;50.056;8.678;2023-03-20T15:03:32;3.33;;;2.53;;
5412;SDS011;2729;50.056;8.678;2023-03-20T15:06:00;3.40;;;2.40;;
5412;SDS011;2729;50.056;8.678;2023-03-20T15:08:30;2.30;;;2.10;;
5412;SDS011;2729;50.056;8.678;2023-03-20T15:10:59;2.27;;;2.10;;
5412;SDS011;2729;50.056;8.678;2023-03-20T15:13:31;6.43;;;2.60;;
5412;SDS011;2729;50.056;8.678;2023-03-20T15:16:07;1.83;;;1.73;;
5412;SDS011;2729;50.056;8.678;2023-03-20T15:18:45;4.37;;;2.17;;
5412;SDS011;2729;50.056;8.678;2023-03-20T15:21:16;2.90;;;2.10;;
5412;SDS011;2729;50.056;8.678;2023-03-20T15:23:45;5.20;;;2.60;;
5412;SDS011;2729;50.056;8.678;2023-03-20T15:26:16;2.50;;;1.87;;
5412;SDS011;2729;50.056;8.678;2023-03-20T15:28:44;2.60;;;2.40;;
5412;SDS011;2729;50.056;8.678;2023-03-20T15:31:20;2.00;;;1.73;;
5412;SDS011;2729;50.056;8.678;2023-03-20T15:33:48;2.90;;;2.20;;
5412;SDS011;2729;50.056;8.678;2023-03-20T15:36:24;4.17;;;1.93;;
5412;SDS011;2729;50.056;8.678;2023-03-20T15:39:00;1.67;;;1.57;;
5412;SDS011;2729;50.056;8.678;2023-03-20T15:41:30;2.47;;;2.03;;
5412;SDS011;2729;50.056;8.678;2023-03-20T15:46:57;4.50;;;2.27;;
5412;SDS011;2729;50.056;8.678;2023-03-20T15:49:25;5.40;;;2.57;;
5412;SDS011;2729;50.056;8.678;2023-03-20T15:51:54;2.70;;;2.03;;
5412;SDS011;2729;50.056;8.678;2023-03-20T15:54:23;2.80;;;1.60;;
5412;SDS011;2729;50.056;8.678;2023-03-20T15:56:50;2.37;;;1.57;;
5412;SDS011;2729;50.056;8.678;2023-03-20T15:59:18;3.10;;;1.90;;
5412;SDS011;2729;50.056;8.678;2023-03-20T16:01:48;1.90;;;1.63;;
5412;SDS011;2729;50.056;8.678;2023-03-20T16:04:16;1.63;;;1.53;;
5412;SDS011;2729;50.056;8.678;2023-03-20T16:06:47;2.70;;;1.73;;
5412;SDS011;2729;50.056;8.678;2023-03-20T16:09:17;1.90;;;1.70;;
5412;SDS011;2729;50.056;8.678;2023-03-20T16:11:45;1.90;;;1.80;;
5412;SDS011;2729;50.056;8.678;2023-03-20T16:14:14;5.17;;;1.83;;
5412;SDS011;2729;50.056;8.678;2023-03-20T16:16:46;1.57;;;1.57;;
5412;SDS011;2729;50.056;8.678;2023-03-20T16:19:13;1.77;;;1.67;;
5412;SDS011;2729;50.056;8.678;2023-03-20T16:21:41;1.70;;;1.60;;
5412;SDS011;2729;50.056;8.678;2023-03-20T16:24:16;2.23;;;2.00;;
5412;SDS011;2729;50.056;8.678;2023-03-20T16:26:54;5.83;;;2.17;;
5412;SDS011;2729;50.056;8.678;2023-03-20T16:29:21;3.80;;;1.80;;
5412;SDS011;2729;50.056;8.678;2023-03-20T16:34:23;2.10;;;1.90;;
5412;SDS011;2729;50.056;8.678;2023-03-20T16:37:00;1.90;;;1.80;;
5412;SDS011;2729;50.056;8.678;2023-03-20T16:39:31;1.43;;;1.33;;
5412;SDS011;2729;50.056;8.678;2023-03-20T16:42:28;1.80;;;1.70;;
5412;SDS011;2729;50.056;8.678;2023-03-20T16:44:54;1.80;;;1.53;;
5412;SDS011;2729;50.056;8.678;2023-03-20T16:47:22;1.40;;;1.40;;
5412;SDS011;2729;50.056;8.678;2023-03-20T16:52:56;4.57;;;1.07;;
5412;SDS011;2729;50.056;8.678;2023-03-20T16:55:25;1.10;;;1.00;;
5412;SDS011;2729;50.056;8.678;2023-03-20T16:57:55;1.33;;;1.23;;
5412;SDS011;2729;50.056;8.678;2023-03-20T17:03:18;1.30;;;1.20;;
5412;SDS011;2729;50.056;8.678;2023-03-20T17:06:35;1.43;;;0.93;;
5412;SDS011;2729;50.056;8.678;2023-03-20T17:08:51;1.93;;;1.23;;
5412;SDS011;2729;50.056;8.678;2023-03-20T17:11:33;1.40;;;1.30;;
5412;SDS011;2729;50.056;8.678;2023-03-20T17:14:01;3.60;;;1.40;;
5412;SDS011;2729;50.056;8.678;2023-03-20T17:16:30;1.20;;;1.20;;
5412;SDS011;2729;50.056;8.678;2023-03-20T17:19:01;1.83;;;1.20;;
5412;SDS011;2729;50.056;8.678;2023-03-20T17:21:32;1.30;;;1.20;;
5412;SDS011;2729;50.056;8.678;2023-03-20T17:23:58;1.40;;;1.30;;
5412;SDS011;2729;50.056;8.678;2023-03-20T17:26:24;2.03;;;1.30;;
5412;SDS011;2729;50.056;8.678;2023-03-20T17:28:50;1.70;;;1.60;;